createdAt,value
2018-08-19T00:01:52.376Z,19.56
2018-08-19T00:04:26.737Z,19.55
2018-08-19T00:07:09.512Z,19.48
2018-08-19T00:09:46.958Z,19.41
2018-08-19T00:12:32.695Z,19.41
2018-08-19T00:15:08.870Z,19.32
2018-08-19T00:17:44.816Z,19.34
2018-08-19T00:20:19.649Z,19.25
2018-08-19T00:22:54.409Z,19.22
2018-08-19T00:25:38.735Z,19.17
2018-08-19T00:28:14.724Z,19.17
2018-08-19T00:30:49.485Z,19.13
2018-08-19T00:33:24.896Z,19.13
2018-08-19T00:36:02.348Z,19.13
2018-08-19T00:38:39.184Z,19.16
2018-08-19T00:41:14.458Z,19.12
2018-08-19T00:43:49.508Z,19.13
2018-08-19T00:46:33.066Z,19.11
2018-08-19T00:49:08.193Z,19.06
2018-08-19T00:51:48.644Z,19.03
2018-08-19T00:54:23.266Z,19.02
2018-08-19T00:57:02.406Z,19.00
2018-08-19T00:59:39.491Z,19.01
2018-08-19T01:02:13.941Z,18.99
2018-08-19T01:04:48.721Z,18.95
2018-08-19T01:07:24.296Z,18.94
2018-08-19T01:09:59.705Z,18.95
2018-08-19T01:12:35.556Z,18.89
2018-08-19T01:15:15.998Z,18.91
2018-08-19T01:17:57.882Z,18.85
2018-08-19T01:20:33.850Z,18.80
2018-08-19T01:23:09.670Z,18.79
2018-08-19T01:25:44.424Z,18.78
2018-08-19T01:28:20.714Z,18.84
2018-08-19T01:30:56.227Z,18.85
2018-08-19T01:33:31.135Z,18.80
2018-08-19T01:36:08.237Z,18.78
2018-08-19T01:41:41.875Z,18.70
2018-08-19T01:44:16.363Z,18.72
2018-08-19T01:46:51.277Z,18.76
2018-08-19T01:49:30.415Z,18.75
2018-08-19T01:52:10.431Z,18.77
2018-08-19T01:54:45.513Z,18.72
2018-08-19T01:57:20.172Z,18.75
2018-08-19T01:59:56.520Z,18.70
2018-08-19T02:02:32.837Z,18.65
2018-08-19T02:05:07.472Z,18.65
2018-08-19T02:07:42.376Z,18.66
2018-08-19T02:10:20.536Z,18.70
2018-08-19T02:12:56.170Z,18.69
2018-08-19T02:15:38.427Z,18.66
2018-08-19T02:18:13.353Z,18.67
2018-08-19T02:20:48.826Z,18.68
2018-08-19T02:23:23.816Z,18.71
2018-08-19T02:25:58.673Z,18.67
2018-08-19T02:28:33.005Z,18.67
2018-08-19T02:31:07.559Z,18.66
2018-08-19T02:33:42.486Z,18.65
2018-08-19T02:36:17.179Z,18.60
2018-08-19T02:38:51.603Z,18.56
2018-08-19T02:41:26.136Z,18.61
2018-08-19T02:44:00.494Z,18.56
2018-08-19T02:46:35.148Z,18.55
2018-08-19T02:49:09.662Z,18.53
2018-08-19T02:51:44.560Z,18.46
2018-08-19T02:54:19.584Z,18.46
2018-08-19T02:56:54.132Z,18.39
2018-08-19T02:59:28.744Z,18.39
2018-08-19T03:02:03.252Z,18.35
2018-08-19T03:04:38.327Z,18.37
2018-08-19T03:07:12.872Z,18.33
2018-08-19T03:09:49.704Z,18.29
2018-08-19T03:12:24.325Z,18.27
2018-08-19T03:14:59.217Z,18.25
2018-08-19T03:17:34.224Z,18.23
2018-08-19T03:20:10.544Z,18.28
2018-08-19T03:22:44.919Z,18.26
2018-08-19T03:25:19.974Z,18.23
2018-08-19T03:27:54.843Z,18.15
2018-08-19T03:30:29.313Z,18.14
2018-08-19T03:33:03.593Z,18.18
2018-08-19T03:35:38.079Z,18.15
2018-08-19T03:38:13.772Z,18.10
2018-08-19T03:40:48.529Z,18.05
2018-08-19T03:43:23.017Z,17.99
2018-08-19T03:46:00.714Z,17.96
2018-08-19T03:48:35.120Z,17.93
2018-08-19T03:51:12.506Z,17.87
2018-08-19T03:53:47.028Z,17.84
2018-08-19T03:56:26.669Z,17.83
2018-08-19T03:59:00.972Z,17.80
2018-08-19T04:01:43.084Z,17.80
2018-08-19T04:04:17.636Z,17.74
2018-08-19T04:06:52.213Z,17.68
2018-08-19T04:09:26.677Z,17.60
2018-08-19T04:12:07.740Z,17.52
2018-08-19T04:14:42.296Z,17.44
2018-08-19T04:17:16.862Z,17.41
2018-08-19T04:19:51.549Z,17.44
2018-08-19T04:22:26.521Z,17.40
2018-08-19T04:25:01.082Z,17.40
2018-08-19T04:27:35.662Z,17.41
2018-08-19T04:30:10.136Z,17.40
2018-08-19T04:32:44.548Z,17.42
2018-08-19T04:35:19.080Z,17.45
2018-08-19T04:37:53.632Z,17.47
2018-08-19T04:40:28.853Z,17.47
2018-08-19T04:43:03.160Z,17.49
2018-08-19T04:45:37.618Z,17.53
2018-08-19T04:48:12.279Z,17.55
2018-08-19T04:50:47.329Z,17.56
2018-08-19T04:53:21.954Z,17.58
2018-08-19T04:55:56.692Z,17.60
2018-08-19T04:58:31.400Z,17.67
2018-08-19T05:01:06.076Z,17.69
2018-08-19T05:03:43.167Z,17.75
2018-08-19T05:06:18.194Z,17.78
2018-08-19T05:08:52.679Z,17.80
2018-08-19T05:11:27.972Z,17.84
2018-08-19T05:14:02.272Z,17.93
2018-08-19T05:16:36.589Z,18.00
2018-08-19T05:19:11.512Z,18.03
2018-08-19T05:21:46.017Z,18.04
2018-08-19T05:24:20.440Z,18.11
2018-08-19T05:26:59.736Z,18.13
2018-08-19T05:29:34.021Z,18.17
2018-08-19T05:32:12.969Z,18.32
2018-08-19T05:34:47.802Z,18.33
2018-08-19T05:37:22.716Z,18.41
2018-08-19T05:39:59.420Z,18.50
2018-08-19T05:42:34.092Z,18.57
2018-08-19T05:45:08.528Z,18.70
2018-08-19T05:47:42.977Z,18.78
2018-08-19T05:50:17.696Z,18.84
2018-08-19T05:52:52.161Z,18.90
2018-08-19T05:55:26.819Z,18.97
2018-08-19T05:58:01.995Z,19.14
2018-08-19T06:00:40.352Z,19.15
2018-08-19T06:03:14.800Z,19.29
2018-08-19T06:05:49.280Z,19.32
2018-08-19T06:08:23.743Z,19.26
2018-08-19T06:10:59.139Z,19.36
2018-08-19T06:13:33.897Z,19.58
2018-08-19T06:16:08.756Z,19.66
2018-08-19T06:18:43.460Z,19.65
2018-08-19T06:21:18.261Z,19.63
2018-08-19T06:23:52.769Z,19.87
2018-08-19T06:26:31.465Z,20.06
2018-08-19T06:29:06.271Z,20.18
2018-08-19T06:31:40.625Z,20.11
2018-08-19T06:34:15.031Z,20.09
2018-08-19T06:36:49.388Z,20.17
2018-08-19T06:39:23.872Z,20.29
2018-08-19T06:41:58.300Z,20.37
2018-08-19T06:44:32.612Z,20.45
2018-08-19T06:47:07.854Z,20.50
2018-08-19T06:49:48.516Z,20.53
2018-08-19T06:52:23.963Z,20.57
2018-08-19T06:54:58.581Z,20.69
2018-08-19T06:57:33.467Z,20.78
2018-08-19T07:00:13.151Z,21.05
2018-08-19T07:02:48.948Z,21.13
2018-08-19T07:05:23.710Z,21.14
2018-08-19T07:07:58.657Z,21.40
2018-08-19T07:10:41.487Z,21.33
2018-08-19T07:13:17.199Z,21.38
2018-08-19T07:15:53.450Z,21.38
2018-08-19T07:18:28.372Z,21.52
2018-08-19T07:21:04.211Z,21.55
2018-08-19T07:23:38.846Z,21.65
2018-08-19T07:26:14.088Z,21.77
2018-08-19T07:28:49.021Z,21.83
2018-08-19T07:31:23.646Z,21.90
2018-08-19T07:33:58.207Z,22.11
2018-08-19T07:36:33.029Z,21.97
2018-08-19T07:39:08.458Z,22.02
2018-08-19T07:41:43.072Z,22.14
2018-08-19T07:44:17.460Z,22.34
2018-08-19T07:46:52.844Z,22.44
2018-08-19T07:49:27.163Z,22.38
2018-08-19T07:52:01.976Z,22.36
2018-08-19T07:54:36.912Z,22.63
2018-08-19T07:57:21.736Z,22.84
2018-08-19T07:59:56.739Z,22.87
2018-08-19T08:02:32.344Z,22.92
2018-08-19T08:05:08.285Z,22.94
2018-08-19T08:07:49.350Z,23.13
2018-08-19T08:10:24.212Z,23.19
2018-08-19T08:13:04.415Z,23.23
2018-08-19T08:15:44.527Z,23.33
2018-08-19T08:18:19.496Z,23.61
2018-08-19T08:20:59.264Z,23.71
2018-08-19T08:23:34.188Z,23.90
2018-08-19T08:26:09.259Z,24.12
2018-08-19T08:28:50.668Z,24.07
2018-08-19T08:31:25.677Z,24.20
2018-08-19T08:34:00.916Z,24.38
2018-08-19T08:36:35.196Z,24.47
2018-08-19T08:39:09.622Z,24.54
2018-08-19T08:41:43.955Z,24.74
2018-08-19T08:44:18.260Z,25.02
2018-08-19T08:46:52.781Z,25.29
2018-08-19T08:49:32.651Z,25.44
2018-08-19T08:52:15.148Z,25.75
2018-08-19T08:54:52.652Z,26.03
2018-08-19T08:57:27.470Z,26.19
2018-08-19T09:00:02.440Z,26.31
2018-08-19T09:02:36.899Z,26.58
2018-08-19T09:05:20.270Z,26.80
2018-08-19T09:07:55.228Z,26.99
2018-08-19T09:10:29.853Z,27.47
2018-08-19T09:13:04.444Z,28.03
2018-08-19T09:15:39.428Z,28.24
2018-08-19T09:18:15.928Z,28.33
2018-08-19T09:20:51.041Z,28.58
2018-08-19T09:23:26.054Z,28.81
2018-08-19T09:26:05.015Z,28.61
2018-08-19T09:28:40.061Z,28.74
2018-08-19T09:31:15.328Z,29.12
2018-08-19T09:33:50.427Z,28.89
2018-08-19T09:36:25.576Z,28.96
2018-08-19T09:39:00.324Z,29.14
2018-08-19T09:41:35.012Z,29.18
2018-08-19T09:44:09.775Z,29.21
2018-08-19T09:46:44.888Z,29.50
2018-08-19T09:49:26.125Z,29.56
2018-08-19T09:52:08.613Z,29.65
2018-08-19T09:54:45.555Z,29.94
2018-08-19T09:57:21.195Z,30.18
2018-08-19T09:59:56.960Z,30.32
2018-08-19T10:02:34.665Z,29.93
2018-08-19T10:05:15.089Z,30.08
2018-08-19T10:07:53.392Z,30.31
2018-08-19T10:10:28.781Z,30.38
2018-08-19T10:13:04.331Z,30.37
2018-08-19T10:15:38.880Z,30.16
2018-08-19T10:18:13.472Z,30.32
2018-08-19T10:20:48.201Z,30.32
2018-08-19T10:23:23.921Z,29.97
2018-08-19T10:26:05.316Z,29.99
2018-08-19T10:28:40.193Z,30.01
2018-08-19T10:31:19.378Z,30.15
2018-08-19T10:33:54.073Z,30.56
2018-08-19T10:36:29.057Z,30.37
2018-08-19T10:39:04.242Z,30.61
2018-08-19T10:41:39.359Z,30.87
2018-08-19T10:44:14.425Z,31.15
2018-08-19T10:46:51.500Z,31.54
2018-08-19T10:49:26.239Z,31.80
2018-08-19T10:52:01.623Z,32.15
2018-08-19T10:54:36.461Z,31.96
2018-08-19T10:57:18.036Z,32.12
2018-08-19T10:59:55.041Z,32.10
2018-08-19T11:02:30.221Z,32.40
2018-08-19T11:05:05.156Z,32.25
2018-08-19T11:07:40.467Z,31.62
2018-08-19T11:10:26.255Z,31.62
2018-08-19T11:13:01.093Z,32.02
2018-08-19T11:15:43.661Z,32.09
2018-08-19T11:21:18.822Z,31.51
2018-08-19T11:23:53.436Z,31.54
2018-08-19T11:26:28.167Z,31.71
2018-08-19T11:29:05.693Z,31.30
2018-08-19T11:31:42.959Z,31.74
2018-08-19T11:34:17.721Z,32.14
2018-08-19T11:36:53.410Z,32.29
2018-08-19T11:39:33.384Z,32.40
2018-08-19T11:42:07.844Z,32.56
2018-08-19T11:44:42.653Z,32.57
2018-08-19T11:47:17.473Z,32.51
2018-08-19T11:49:51.944Z,32.51
2018-08-19T11:52:26.412Z,32.63
2018-08-19T11:55:01.260Z,33.27
2018-08-19T11:57:35.757Z,32.91
2018-08-19T12:00:11.047Z,33.17
2018-08-19T12:02:45.502Z,33.10
2018-08-19T12:05:20.666Z,33.49
2018-08-19T12:07:59.701Z,33.46
2018-08-19T12:10:34.427Z,33.62
2018-08-19T12:15:51.190Z,33.29
2018-08-19T12:18:26.420Z,32.39
2018-08-19T12:21:00.835Z,32.40
2018-08-19T12:23:35.344Z,33.08
2018-08-19T12:26:10.152Z,32.89
2018-08-19T12:28:45.292Z,33.30
2018-08-19T12:31:20.682Z,33.14
2018-08-19T12:33:57.032Z,33.43
2018-08-19T12:36:32.501Z,33.94
2018-08-19T12:39:09.853Z,34.25
2018-08-19T12:41:49.651Z,34.55
2018-08-19T12:44:25.309Z,34.93
2018-08-19T12:47:15.773Z,35.03
2018-08-19T12:50:00.300Z,35.31
2018-08-19T12:52:35.560Z,35.36
2018-08-19T12:55:13.214Z,35.23
2018-08-19T12:57:54.167Z,34.59
2018-08-19T13:00:32.648Z,34.05
2018-08-19T13:03:09.129Z,33.96
2018-08-19T13:05:57.436Z,33.33
2018-08-19T13:08:32.223Z,32.28
2018-08-19T13:11:07.841Z,32.68
2018-08-19T13:13:43.542Z,32.36
2018-08-19T13:16:19.797Z,32.26
2018-08-19T13:18:55.462Z,32.30
2018-08-19T13:21:33.038Z,31.74
2018-08-19T13:24:07.979Z,31.59
2018-08-19T13:26:42.327Z,31.74
2018-08-19T13:29:16.916Z,32.25
2018-08-19T13:31:51.514Z,32.60
2018-08-19T13:34:26.849Z,32.82
2018-08-19T13:37:01.588Z,33.09
2018-08-19T13:39:36.446Z,33.12
2018-08-19T13:42:17.316Z,33.15
2018-08-19T13:44:56.228Z,33.69
2018-08-19T13:47:31.188Z,34.04
2018-08-19T13:50:06.540Z,34.24
2018-08-19T13:52:41.350Z,34.52
2018-08-19T13:55:17.596Z,34.61
2018-08-19T13:57:52.456Z,34.94
2018-08-19T14:00:33.419Z,34.75
2018-08-19T14:03:07.856Z,34.43
2018-08-19T14:05:42.156Z,34.34
2018-08-19T14:08:16.866Z,34.55
2018-08-19T14:10:51.541Z,34.72
2018-08-19T14:13:26.328Z,34.55
2018-08-19T14:16:00.853Z,34.58
2018-08-19T14:18:35.378Z,34.43
2018-08-19T14:21:09.909Z,34.45
2018-08-19T14:23:45.356Z,33.82
2018-08-19T14:26:20.601Z,33.56
2018-08-19T14:28:55.289Z,33.43
2018-08-19T14:31:30.337Z,33.31
2018-08-19T14:34:05.569Z,33.70
2018-08-19T14:36:40.224Z,33.49
2018-08-19T14:39:14.948Z,33.16
2018-08-19T14:41:49.396Z,33.00
2018-08-19T14:44:24.096Z,33.06
2018-08-19T14:46:59.447Z,32.79
2018-08-19T14:49:34.114Z,32.81
2018-08-19T14:52:08.876Z,32.84
2018-08-19T14:54:57.918Z,32.87
2018-08-19T14:57:33.060Z,33.25
2018-08-19T15:00:10.884Z,33.52
2018-08-19T15:02:45.320Z,33.44
2018-08-19T15:05:21.450Z,33.43
2018-08-19T15:07:57.795Z,33.14
2018-08-19T15:10:32.516Z,33.02
2018-08-19T15:13:08.172Z,32.74
2018-08-19T15:15:43.206Z,32.72
2018-08-19T15:18:17.780Z,32.97
2018-08-19T15:20:55.145Z,32.76
2018-08-19T15:23:30.847Z,32.66
2018-08-19T15:26:05.827Z,32.54
2018-08-19T15:28:41.852Z,32.49
2018-08-19T15:31:21.873Z,32.51
2018-08-19T15:33:57.028Z,32.49
2018-08-19T15:36:31.982Z,32.57
2018-08-19T15:39:08.711Z,32.56
2018-08-19T15:41:43.151Z,32.27
2018-08-19T15:44:18.830Z,32.46
2018-08-19T15:46:53.448Z,32.75
2018-08-19T15:49:27.853Z,32.91
2018-08-19T15:52:12.576Z,32.77
2018-08-19T15:54:52.785Z,32.52
2018-08-19T15:57:28.420Z,32.22
2018-08-19T16:00:03.325Z,32.11
2018-08-19T16:02:37.989Z,32.33
2018-08-19T16:05:15.384Z,32.44
2018-08-19T16:07:50.715Z,32.22
2018-08-19T16:10:25.839Z,32.02
2018-08-19T16:13:04.253Z,31.94
2018-08-19T16:15:42.657Z,31.69
2018-08-19T16:18:17.656Z,31.63
2018-08-19T16:20:58.257Z,31.49
2018-08-19T16:23:33.057Z,31.27
2018-08-19T16:26:07.488Z,31.47
2018-08-19T16:28:41.860Z,31.63
2018-08-19T16:31:16.554Z,31.64
2018-08-19T16:33:55.349Z,31.85
2018-08-19T16:36:30.243Z,31.84
2018-08-19T16:39:09.835Z,31.52
2018-08-19T16:41:44.748Z,31.23
2018-08-19T16:44:19.246Z,31.07
2018-08-19T16:46:54.414Z,31.04
2018-08-19T16:49:28.955Z,31.00
2018-08-19T16:52:04.711Z,30.73
2018-08-19T16:54:40.020Z,30.57
2018-08-19T16:57:14.662Z,30.52
2018-08-19T16:59:49.669Z,30.28
2018-08-19T17:02:24.309Z,29.93
2018-08-19T17:04:58.729Z,29.74
2018-08-19T17:07:33.176Z,29.81
2018-08-19T17:10:08.326Z,29.70
2018-08-19T17:12:42.711Z,29.38
2018-08-19T17:15:17.617Z,29.32
2018-08-19T17:17:51.969Z,29.25
2018-08-19T17:20:26.244Z,29.34
2018-08-19T17:23:00.648Z,29.10
2018-08-19T17:25:35.364Z,29.01
2018-08-19T17:28:18.224Z,28.92
2018-08-19T17:30:54.228Z,28.73
2018-08-19T17:33:30.740Z,28.63
2018-08-19T17:36:05.628Z,28.50
2018-08-19T17:38:40.188Z,28.36
2018-08-19T17:41:14.799Z,28.21
2018-08-19T17:43:49.432Z,28.09
2018-08-19T17:46:23.993Z,27.90
2018-08-19T17:48:58.834Z,27.74
2018-08-19T17:51:35.145Z,27.64
2018-08-19T17:54:14.707Z,27.57
2018-08-19T17:56:49.205Z,27.53
2018-08-19T17:59:23.581Z,27.42
2018-08-19T18:01:58.232Z,27.29
2018-08-19T18:04:38.284Z,27.15
2018-08-19T18:07:14.796Z,27.00
2018-08-19T18:10:03.807Z,26.88
2018-08-19T18:12:38.116Z,26.74
2018-08-19T18:15:13.444Z,26.57
2018-08-19T18:17:55.155Z,26.53
2018-08-19T18:20:34.807Z,26.41
2018-08-19T18:23:17.960Z,26.30
2018-08-19T18:25:52.628Z,26.13
2018-08-19T18:28:29.253Z,26.04
2018-08-19T18:31:10.644Z,25.97
2018-08-19T18:34:00.255Z,25.77
2018-08-19T18:36:35.956Z,25.55
2018-08-19T18:39:11.437Z,25.39
2018-08-19T18:41:46.576Z,25.26
2018-08-19T18:44:20.847Z,25.09
2018-08-19T18:46:55.764Z,25.01
2018-08-19T18:49:30.336Z,24.90
2018-08-19T18:52:10.875Z,24.82
2018-08-19T18:54:52.031Z,24.66
2018-08-19T18:57:28.876Z,24.56
2018-08-19T19:00:03.687Z,24.46
2018-08-19T19:02:38.253Z,24.42
2018-08-19T19:05:26.860Z,24.38
2018-08-19T19:08:07.348Z,24.38
2018-08-19T19:11:01.147Z,24.32
2018-08-19T19:13:36.954Z,24.28
2018-08-19T19:16:12.282Z,24.17
2018-08-19T19:18:49.912Z,24.03
2018-08-19T19:21:25.362Z,23.94
2018-08-19T19:24:00.013Z,23.93
2018-08-19T19:26:40.000Z,23.87
2018-08-19T19:29:18.456Z,23.74
2018-08-19T19:32:02.717Z,23.63
2018-08-19T19:34:37.201Z,23.56
2018-08-19T19:37:12.815Z,23.47
2018-08-19T19:39:50.621Z,23.36
2018-08-19T19:42:25.143Z,23.25
2018-08-19T19:45:00.238Z,23.21
2018-08-19T19:47:35.226Z,23.22
2018-08-19T19:50:10.923Z,23.24
2018-08-19T19:52:54.135Z,23.17
2018-08-19T19:55:31.862Z,23.04
2018-08-19T19:58:06.660Z,23.11
2018-08-19T20:00:53.180Z,23.02
2018-08-19T20:03:33.589Z,22.94
2018-08-19T20:06:08.491Z,22.85
2018-08-19T20:08:42.995Z,22.72
2018-08-19T20:11:22.280Z,22.63
2018-08-19T20:13:58.837Z,22.54
2018-08-19T20:16:33.588Z,22.51
2018-08-19T20:19:08.251Z,22.53
2018-08-19T20:21:42.920Z,22.42
2018-08-19T20:24:17.866Z,22.41
2018-08-19T20:26:52.676Z,22.31
2018-08-19T20:29:27.024Z,22.24
2018-08-19T20:32:01.640Z,22.21
2018-08-19T20:34:36.188Z,22.28
2018-08-19T20:37:10.973Z,22.25
2018-08-19T20:39:48.190Z,22.20
2018-08-19T20:42:22.918Z,22.12
2018-08-19T20:44:57.966Z,22.15
2018-08-19T20:47:33.920Z,21.99
2018-08-19T20:50:09.213Z,21.95
2018-08-19T20:52:47.978Z,21.89
2018-08-19T20:55:23.288Z,21.80
2018-08-19T20:57:58.242Z,21.75
2018-08-19T21:00:34.551Z,21.79
2018-08-19T21:03:15.452Z,21.79
2018-08-19T21:05:49.764Z,21.72
2018-08-19T21:08:24.257Z,21.69
2018-08-19T21:10:59.452Z,21.67
2018-08-19T21:13:34.292Z,21.66
2018-08-19T21:16:08.863Z,21.58
2018-08-19T21:18:45.428Z,21.54
2018-08-19T21:21:20.360Z,21.53
2018-08-19T21:23:54.942Z,21.46
2018-08-19T21:26:29.605Z,21.40
2018-08-19T21:29:04.872Z,21.39
2018-08-19T21:31:49.109Z,21.35
2018-08-19T21:34:24.050Z,21.30
2018-08-19T21:36:59.916Z,21.26
2018-08-19T21:39:35.377Z,21.22
2018-08-19T21:42:09.768Z,21.17
2018-08-19T21:44:44.112Z,21.21
2018-08-19T21:47:18.756Z,21.14
2018-08-19T21:49:57.360Z,21.05
2018-08-19T21:52:32.136Z,21.06
2018-08-19T21:55:08.760Z,21.00
2018-08-19T21:57:43.248Z,20.92
2018-08-19T22:00:17.572Z,20.86
2018-08-19T22:02:57.776Z,20.80
2018-08-19T22:05:34.602Z,20.76
2018-08-19T22:08:10.017Z,20.70
2018-08-19T22:10:45.815Z,20.68
2018-08-19T22:13:21.447Z,20.65
2018-08-19T22:15:55.756Z,20.62
2018-08-19T22:18:32.712Z,20.62
2018-08-19T22:21:14.467Z,20.59
2018-08-19T22:23:50.244Z,20.59
2018-08-19T22:26:25.113Z,20.52
2018-08-19T22:29:13.926Z,20.47
2018-08-19T22:31:50.251Z,20.52
2018-08-19T22:34:25.027Z,20.42
2018-08-19T22:37:00.337Z,20.38
2018-08-19T22:39:41.677Z,20.47
2018-08-19T22:42:31.590Z,20.44
2018-08-19T22:45:10.199Z,20.42
2018-08-19T22:47:44.606Z,20.41
2018-08-19T22:50:22.931Z,20.30
2018-08-19T22:52:57.496Z,20.24
2018-08-19T22:55:32.348Z,20.30
2018-08-19T22:58:12.692Z,20.29
2018-08-19T23:00:48.025Z,20.31
2018-08-19T23:03:27.484Z,20.35
2018-08-19T23:06:04.038Z,20.36
2018-08-19T23:08:38.799Z,20.37
2018-08-19T23:11:13.954Z,20.33
2018-08-19T23:14:00.951Z,20.34
2018-08-19T23:16:41.996Z,20.25
2018-08-19T23:19:20.474Z,20.26
2018-08-19T23:21:55.868Z,20.30
2018-08-19T23:24:30.649Z,20.32
2018-08-19T23:27:05.612Z,20.32
2018-08-19T23:29:40.177Z,20.33
2018-08-19T23:32:14.813Z,20.38
2018-08-19T23:34:49.685Z,20.38
2018-08-19T23:37:24.119Z,20.36
2018-08-19T23:39:58.579Z,20.38
2018-08-19T23:42:33.059Z,20.37
2018-08-19T23:45:07.716Z,20.34
2018-08-19T23:47:42.228Z,20.30
2018-08-19T23:50:19.762Z,20.31
2018-08-19T23:53:00.037Z,20.22
2018-08-19T23:55:36.676Z,20.24
2018-08-19T23:58:11.815Z,20.30
